Time;durP1;ratioP1;P1;durP2;ratioP2;P2;SDS_P1;SDS_P2;PMS_P1;PMS_P2;Temp;Humidity;BMP_temperature;BMP_pressure;BME280_temperature;BME280_humidity;BME280_pressure;Samples;Min_cycle;Max_cycle;Signal;HPM_P1;HPM_P2
2022/07/17 00:00:42;;;;;;;2.00;1.42;;;25.20;43.20;;;;;;6045295;23;90978;-85
2022/07/17 00:03:12;;;;;;;2.60;1.30;;;25.20;43.40;;;;;;6071521;23;87260;-84
2022/07/17 00:05:38;;;;;;;2.65;1.67;;;25.20;43.40;;;;;;6072562;23;87125;-85
2022/07/17 00:08:06;;;;;;;1.83;1.20;;;25.20;43.50;;;;;;6071410;23;87213;-84
2022/07/17 00:10:32;;;;;;;1.58;1.35;;;25.20;43.40;;;;;;6070178;23;88708;-84
2022/07/17 00:12:57;;;;;;;2.03;1.48;;;25.20;43.50;;;;;;6069879;23;87468;-85
2022/07/17 00:15:23;;;;;;;2.70;1.40;;;25.20;43.50;;;;;;6070319;23;87714;-85
2022/07/17 00:17:49;;;;;;;2.17;1.35;;;25.20;43.60;;;;;;6070593;23;89913;-85
2022/07/17 00:20:14;;;;;;;2.00;1.50;;;25.20;43.40;;;;;;6071198;23;88840;-84
2022/07/17 00:22:42;;;;;;;1.85;1.00;;;25.20;43.50;;;;;;6072326;23;87185;-85
2022/07/17 00:25:09;;;;;;;2.17;1.30;;;25.20;43.50;;;;;;6071751;23;87400;-85
2022/07/17 00:27:36;;;;;;;3.05;1.38;;;25.20;43.60;;;;;;6070962;23;89060;-84
2022/07/17 00:30:02;;;;;;;2.95;1.65;;;25.20;43.70;;;;;;6071281;23;87751;-84
2022/07/17 00:32:28;;;;;;;1.83;1.27;;;25.20;43.70;;;;;;6071903;23;86891;-85
2022/07/17 00:34:53;;;;;;;3.20;1.35;;;25.20;43.80;;;;;;6073140;23;87390;-85
2022/07/17 00:37:29;;;;;;;2.05;1.30;;;25.10;43.80;;;;;;6071274;23;87593;-85
2022/07/17 00:39:55;;;;;;;2.70;1.50;;;25.20;43.90;;;;;;6044391;23;91359;-85
2022/07/17 00:42:21;;;;;;;3.92;1.95;;;25.20;43.80;;;;;;6071115;23;88059;-85
2022/07/17 00:44:46;;;;;;;2.03;1.40;;;25.20;44.10;;;;;;6071195;23;87308;-85
2022/07/17 00:47:17;;;;;;;2.08;1.25;;;25.10;43.90;;;;;;6071604;23;87755;-85
2022/07/17 00:49:43;;;;;;;2.42;1.30;;;25.10;43.90;;;;;;6070728;23;88080;-85
2022/07/17 00:52:12;;;;;;;3.90;1.50;;;25.20;44.00;;;;;;6072304;23;86774;-84
2022/07/17 00:54:39;;;;;;;1.73;1.30;;;25.10;43.90;;;;;;6072168;23;86875;-85
2022/07/17 00:57:07;;;;;;;2.20;1.42;;;25.20;44.00;;;;;;6070518;23;88375;-84
2022/07/17 00:59:34;;;;;;;2.27;1.37;;;25.10;44.00;;;;;;6070951;23;88696;-84
2022/07/17 01:02:09;;;;;;;3.15;1.50;;;25.10;44.00;;;;;;6045945;23;86942;-84
2022/07/17 01:04:35;;;;;;;2.20;1.30;;;25.10;44.10;;;;;;6071684;23;87914;-85
2022/07/17 01:07:06;;;;;;;2.00;1.23;;;25.10;44.10;;;;;;6070447;23;89310;-85
2022/07/17 01:09:32;;;;;;;1.63;1.20;;;25.10;44.10;;;;;;6071498;23;89211;-84
2022/07/17 01:11:58;;;;;;;2.75;1.92;;;25.10;44.10;;;;;;6071663;23;86813;-85
2022/07/17 01:14:25;;;;;;;1.40;1.13;;;25.10;44.00;;;;;;6071447;23;87399;-85
2022/07/17 01:16:52;;;;;;;2.85;1.65;;;25.10;44.10;;;;;;6071069;23;89201;-85
2022/07/17 01:19:19;;;;;;;2.05;1.35;;;25.10;44.10;;;;;;6071999;23;87686;-85
2022/07/17 01:21:46;;;;;;;3.50;1.40;;;25.10;44.30;;;;;;6045365;23;87389;-85
2022/07/17 01:24:12;;;;;;;1.52;1.30;;;25.10;44.30;;;;;;6071732;23;87480;-85
2022/07/17 01:26:42;;;;;;;1.45;1.30;;;25.10;44.20;;;;;;6071288;23;87595;-85
2022/07/17 01:29:10;;;;;;;2.08;1.40;;;25.10;44.30;;;;;;6072344;23;88369;-85
2022/07/17 01:31:36;;;;;;;2.20;1.40;;;25.00;44.40;;;;;;6074328;23;87796;-85
2022/07/17 01:34:04;;;;;;;2.22;1.50;;;25.00;44.50;;;;;;6070744;23;86780;-84
2022/07/17 01:36:30;;;;;;;1.60;1.43;;;25.00;44.40;;;;;;6071443;23;88154;-85
2022/07/17 01:38:56;;;;;;;2.70;1.30;;;25.10;44.50;;;;;;6070924;23;88616;-84
2022/07/17 01:41:22;;;;;;;1.33;1.13;;;25.10;44.50;;;;;;6045605;23;87642;-85
2022/07/17 01:43:48;;;;;;;2.60;1.38;;;25.10;44.40;;;;;;6071951;23;87013;-85
2022/07/17 01:46:14;;;;;;;1.45;1.20;;;25.10;44.60;;;;;;6071533;23;88078;-84
2022/07/17 01:48:40;;;;;;;3.75;1.92;;;25.10;44.60;;;;;;6045666;23;90777;-85
2022/07/17 01:51:06;;;;;;;2.22;1.33;;;25.10;44.60;;;;;;6071288;23;86801;-85
2022/07/17 01:53:32;;;;;;;1.75;1.08;;;25.00;44.50;;;;;;6045288;23;90178;-85
2022/07/17 01:55:57;;;;;;;2.97;1.38;;;25.00;44.60;;;;;;6068870;23;92502;-84
2022/07/17 01:58:23;;;;;;;1.58;1.30;;;25.00;44.40;;;;;;6070229;23;88900;-85
2022/07/17 02:00:49;;;;;;;2.40;1.60;;;25.00;44.60;;;;;;6044927;23;87142;-85
2022/07/17 02:03:16;;;;;;;2.00;1.23;;;25.00;44.50;;;;;;6071186;23;87460;-86
2022/07/17 02:05:41;;;;;;;2.08;1.30;;;25.00;44.60;;;;;;6071436;23;87711;-84
2022/07/17 02:08:07;;;;;;;2.85;1.67;;;25.00;44.60;;;;;;6044266;23;91282;-85
2022/07/17 02:10:33;;;;;;;2.08;1.30;;;25.00;44.50;;;;;;6071416;23;87455;-85
2022/07/17 02:12:58;;;;;;;2.22;1.10;;;25.00;44.50;;;;;;6071432;23;86575;-85
2022/07/17 02:15:24;;;;;;;1.75;1.45;;;25.00;44.60;;;;;;6068955;23;90044;-84
2022/07/17 02:17:50;;;;;;;1.85;1.50;;;25.00;44.70;;;;;;6070651;23;87295;-85
2022/07/17 02:20:16;;;;;;;2.53;1.38;;;25.00;44.80;;;;;;6070206;23;87885;-84
2022/07/17 02:22:42;;;;;;;1.77;1.48;;;25.00;44.80;;;;;;6071303;23;87119;-84
2022/07/17 02:25:09;;;;;;;1.90;1.23;;;25.00;44.70;;;;;;6071013;23;88112;-85
2022/07/17 02:27:35;;;;;;;1.60;1.23;;;24.90;44.70;;;;;;6070171;23;88370;-85
2022/07/17 02:30:08;;;;;;;4.22;1.10;;;25.00;44.80;;;;;;6071097;23;87048;-84
2022/07/17 02:32:34;;;;;;;2.30;1.40;;;25.00;45.00;;;;;;6072295;23;87276;-84
2022/07/17 02:35:00;;;;;;;1.40;1.10;;;25.00;45.00;;;;;;6071544;23;87250;-84
2022/07/17 02:37:26;;;;;;;1.17;0.98;;;24.90;45.00;;;;;;6044481;23;90016;-85
2022/07/17 02:39:52;;;;;;;1.73;1.25;;;24.90;44.90;;;;;;6009406;23;87068;-85
2022/07/17 02:42:28;;;;;;;2.45;1.48;;;24.90;45.10;;;;;;5985189;23;89876;-84
2022/07/17 02:44:55;;;;;;;1.65;1.20;;;24.90;45.00;;;;;;6009012;23;88167;-85
2022/07/17 02:47:25;;;;;;;1.95;1.30;;;24.90;45.10;;;;;;6009279;23;88626;-84
2022/07/17 02:49:51;;;;;;;1.52;1.20;;;24.90;45.20;;;;;;6009262;23;87261;-85
2022/07/17 02:52:17;;;;;;;2.10;1.38;;;24.90;45.10;;;;;;6009543;23;87009;-85
2022/07/17 02:54:43;;;;;;;1.50;1.10;;;24.90;45.20;;;;;;6010090;23;87374;-85
2022/07/17 02:57:09;;;;;;;2.25;1.25;;;24.80;45.10;;;;;;6008841;23;87277;-85
2022/07/17 02:59:34;;;;;;;1.20;1.10;;;24.90;45.30;;;;;;5985288;23;86821;-84
2022/07/17 03:02:00;;;;;;;1.25;1.05;;;24.90;45.30;;;;;;6009892;23;87196;-84
2022/07/17 03:04:26;;;;;;;1.67;1.00;;;24.80;45.30;;;;;;6009385;23;88174;-84
2022/07/17 03:06:51;;;;;;;1.40;1.00;;;24.90;45.50;;;;;;6010239;23;87151;-85
2022/07/17 03:09:17;;;;;;;1.40;1.10;;;24.80;45.40;;;;;;6009273;23;87865;-84
2022/07/17 03:11:43;;;;;;;1.58;1.05;;;24.80;45.40;;;;;;6060253;23;87337;-85
2022/07/17 03:14:09;;;;;;;2.17;1.10;;;24.80;45.70;;;;;;6070547;23;88548;-85
2022/07/17 03:16:45;;;;;;;;;;;;;;;;;;;;;
2022/07/17 03:19:10;;;;;;;1.85;1.20;;;24.80;45.30;;;;;;6070904;23;86728;-85
2022/07/17 03:21:36;;;;;;;1.13;1.00;;;24.80;45.50;;;;;;6071941;23;87213;-85
2022/07/17 03:24:01;;;;;;;1.80;1.30;;;24.80;45.50;;;;;;6071669;23;88273;-85
2022/07/17 03:26:27;;;;;;;1.40;1.00;;;24.80;45.50;;;;;;6073297;23;88115;-85
2022/07/17 03:28:52;;;;;;;1.25;1.15;;;24.80;45.60;;;;;;6070040;23;86722;-85
2022/07/17 03:31:18;;;;;;;1.08;0.98;;;24.80;45.60;;;;;;6045998;23;90862;-85
2022/07/17 03:33:44;;;;;;;0.90;0.90;;;24.80;45.60;;;;;;6010003;23;90019;-84
2022/07/17 03:36:09;;;;;;;1.02;0.90;;;24.80;45.60;;;;;;6010013;23;87954;-85
2022/07/17 03:38:35;;;;;;;1.52;1.42;;;24.80;45.70;;;;;;6012193;23;86939;-85
2022/07/17 03:41:00;;;;;;;1.70;1.30;;;24.80;45.70;;;;;;6010958;23;87338;-85
2022/07/17 03:43:26;;;;;;;1.25;1.15;;;24.80;45.80;;;;;;6011281;23;88061;-85
2022/07/17 03:45:52;;;;;;;1.38;1.10;;;24.70;45.70;;;;;;6010329;23;87960;-84
2022/07/17 03:48:18;;;;;;;1.40;1.02;;;24.70;45.70;;;;;;6011219;23;87405;-84
2022/07/17 03:50:44;;;;;;;1.27;1.10;;;24.70;46.30;;;;;;6011313;23;87315;-85
2022/07/17 03:53:10;;;;;;;1.17;1.02;;;24.70;46.50;;;;;;6010999;23;88308;-84
2022/07/17 03:55:35;;;;;;;1.58;1.30;;;24.70;45.80;;;;;;6010819;23;88148;-84
2022/07/17 03:58:01;;;;;;;1.70;1.00;;;24.70;46.00;;;;;;5985857;23;88487;-85
2022/07/17 04:00:26;;;;;;;1.92;1.08;;;24.70;45.90;;;;;;5986089;23;90062;-84
2022/07/17 04:02:52;;;;;;;1.30;1.10;;;24.70;45.90;;;;;;6010240;23;87492;-84
2022/07/17 04:05:18;;;;;;;3.00;1.45;;;24.70;45.80;;;;;;6055062;23;88103;-85
2022/07/17 04:07:44;;;;;;;1.73;1.05;;;24.70;45.80;;;;;;6045437;23;86836;-84
2022/07/17 04:10:12;;;;;;;1.55;1.10;;;24.70;46.00;;;;;;6045336;23;89509;-85
2022/07/17 04:12:38;;;;;;;1.45;0.90;;;24.70;45.90;;;;;;6071720;23;88511;-85
2022/07/17 04:15:04;;;;;;;1.00;0.90;;;24.70;45.70;;;;;;6072508;23;87863;-85
2022/07/17 04:17:31;;;;;;;1.10;0.90;;;24.70;46.00;;;;;;6072062;23;87263;-84
2022/07/17 04:19:57;;;;;;;2.55;1.25;;;24.70;45.90;;;;;;6072053;23;86674;-84
2022/07/17 04:22:23;;;;;;;1.13;0.95;;;24.70;46.00;;;;;;6070768;23;89539;-85
2022/07/17 04:24:48;;;;;;;1.20;0.98;;;24.70;45.90;;;;;;6045273;23;91753;-85
2022/07/17 04:27:14;;;;;;;1.90;1.20;;;24.70;46.10;;;;;;6071696;23;86965;-84
2022/07/17 04:29:40;;;;;;;2.10;1.10;;;24.70;46.00;;;;;;6045227;23;89943;-84
2022/07/17 04:32:07;;;;;;;1.10;1.00;;;24.70;46.00;;;;;;6070263;23;88715;-85
2022/07/17 04:34:33;;;;;;;1.27;0.80;;;24.70;46.00;;;;;;6070305;23;87458;-84
2022/07/17 04:37:00;;;;;;;1.10;1.00;;;24.70;45.90;;;;;;6068337;23;87403;-85
2022/07/17 04:39:25;;;;;;;1.02;0.93;;;24.70;45.90;;;;;;6071559;23;86492;-85
2022/07/17 04:41:51;;;;;;;1.38;1.00;;;24.70;45.90;;;;;;6070809;23;87544;-84
2022/07/17 04:44:18;;;;;;;1.55;0.93;;;24.80;46.00;;;;;;6070560;23;88735;-85
2022/07/17 04:46:43;;;;;;;1.60;1.23;;;24.80;45.90;;;;;;6070482;23;87737;-85
2022/07/17 04:49:09;;;;;;;1.92;0.95;;;24.80;45.90;;;;;;6071251;23;87296;-84
2022/07/17 04:51:34;;;;;;;1.00;0.90;;;24.80;46.00;;;;;;6069438;23;90837;-85
2022/07/17 04:54:02;;;;;;;1.20;0.93;;;24.80;45.90;;;;;;6070495;23;89026;-85
2022/07/17 04:56:28;;;;;;;1.08;0.80;;;24.80;45.80;;;;;;6045507;23;87396;-84
2022/07/17 04:58:53;;;;;;;2.05;1.20;;;24.80;45.80;;;;;;6070576;23;86877;-84
2022/07/17 05:01:19;;;;;;;1.45;1.20;;;24.80;46.00;;;;;;6070584;23;88790;-85
2022/07/17 05:03:45;;;;;;;1.45;1.20;;;24.80;45.90;;;;;;6069276;23;91388;-85
2022/07/17 05:06:11;;;;;;;2.13;1.05;;;24.80;45.80;;;;;;6071784;23;87130;-85
2022/07/17 05:08:37;;;;;;;1.25;0.95;;;24.90;45.90;;;;;;6071967;23;86774;-84
2022/07/17 05:11:02;;;;;;;1.15;0.80;;;24.90;45.80;;;;;;6070281;23;88918;-85
2022/07/17 05:13:28;;;;;;;0.88;0.77;;;24.90;45.80;;;;;;6045356;23;90816;-85
2022/07/17 05:15:53;;;;;;;1.10;1.00;;;24.90;46.50;;;;;;6071900;23;87089;-85
2022/07/17 05:18:19;;;;;;;1.08;0.95;;;24.90;45.90;;;;;;6071398;23;87424;-84
2022/07/17 05:20:45;;;;;;;2.03;0.93;;;25.00;45.90;;;;;;6045420;23;90271;-85
2022/07/17 05:23:10;;;;;;;1.58;1.00;;;25.00;45.80;;;;;;6071713;23;87283;-85
2022/07/17 05:25:36;;;;;;;1.45;1.00;;;25.00;46.00;;;;;;6071078;23;86917;-85
2022/07/17 05:28:02;;;;;;;1.65;1.00;;;25.00;45.80;;;;;;6071782;23;87813;-85
2022/07/17 05:30:28;;;;;;;0.98;0.88;;;25.10;45.90;;;;;;6071306;23;88726;-85
2022/07/17 05:32:54;;;;;;;1.73;1.10;;;25.10;46.00;;;;;;6073961;23;88079;-85
2022/07/17 05:35:19;;;;;;;0.90;0.73;;;25.10;45.90;;;;;;6072139;23;87666;-85
2022/07/17 05:37:45;;;;;;;1.73;1.15;;;25.10;46.00;;;;;;6071362;23;86956;-84
2022/07/17 05:40:11;;;;;;;1.40;1.10;;;25.10;46.10;;;;;;6071068;23;87726;-85
2022/07/17 05:42:44;;;;;;;1.02;0.93;;;25.10;46.10;;;;;;6070577;23;88050;-84
2022/07/17 05:45:10;;;;;;;1.10;1.00;;;25.10;46.20;;;;;;6071537;23;86733;-85
2022/07/17 05:47:36;;;;;;;2.30;1.30;;;25.20;46.10;;;;;;6071792;23;88097;-84
2022/07/17 05:50:01;;;;;;;1.10;1.00;;;25.20;46.00;;;;;;6070804;23;88090;-85
2022/07/17 05:52:27;;;;;;;1.65;1.15;;;25.20;46.10;;;;;;6070832;23;88376;-84
2022/07/17 05:54:53;;;;;;;1.17;1.00;;;25.20;46.10;;;;;;6069147;23;86805;-85
2022/07/17 05:57:18;;;;;;;1.25;0.88;;;25.20;46.10;;;;;;6071095;23;87190;-83
2022/07/17 05:59:44;;;;;;;2.33;1.20;;;25.30;46.00;;;;;;6070613;23;89103;-82
2022/07/17 06:02:09;;;;;;;4.05;1.45;;;25.30;45.60;;;;;;6070508;23;89255;-81
2022/07/17 06:04:35;;;;;;;2.97;1.40;;;25.20;44.70;;;;;;6070955;23;87119;-84
2022/07/17 06:07:00;;;;;;;5.32;2.33;;;25.10;44.20;;;;;;6071753;23;86809;-85
2022/07/17 06:09:26;;;;;;;5.30;2.08;;;25.10;43.90;;;;;;6070304;23;87775;-83
2022/07/17 06:11:52;;;;;;;4.13;1.77;;;25.00;43.80;;;;;;6070461;23;88215;-83
2022/07/17 06:14:17;;;;;;;3.97;1.88;;;24.90;43.80;;;;;;6071458;23;86827;-83
2022/07/17 06:16:43;;;;;;;8.40;2.47;;;25.00;43.60;;;;;;6071115;23;86831;-83
2022/07/17 06:19:08;;;;;;;4.68;2.17;;;24.90;43.40;;;;;;6070694;23;88095;-84
2022/07/17 06:21:34;;;;;;;6.60;2.20;;;24.80;43.20;;;;;;6071699;23;87071;-82
2022/07/17 06:24:00;;;;;;;5.55;2.17;;;24.90;43.20;;;;;;6070860;23;88174;-83
2022/07/17 06:26:28;;;;;;;5.05;1.88;;;24.80;43.00;;;;;;6071553;23;87219;-83
2022/07/17 06:28:56;;;;;;;4.45;2.30;;;24.80;43.20;;;;;;6070254;23;88289;-83
2022/07/17 06:31:22;;;;;;;8.43;2.58;;;24.90;43.10;;;;;;6070743;23;87297;-83
2022/07/17 06:33:47;;;;;;;5.53;2.20;;;24.80;43.00;;;;;;6073340;23;87061;-82
2022/07/17 06:36:13;;;;;;;12.30;2.50;;;24.80;43.20;;;;;;6072344;23;87209;-83
2022/07/17 06:38:38;;;;;;;5.18;2.20;;;24.80;43.20;;;;;;6071021;23;86797;-82
2022/07/17 06:41:04;;;;;;;6.32;2.15;;;24.80;43.20;;;;;;6070670;23;88332;-83
2022/07/17 06:43:30;;;;;;;7.97;1.92;;;24.80;43.30;;;;;;6043096;23;87124;-82
2022/07/17 06:45:55;;;;;;;7.28;2.10;;;24.90;43.40;;;;;;6068594;23;87302;-82
2022/07/17 06:48:21;;;;;;;8.48;2.33;;;24.90;43.10;;;;;;6069038;23;88959;-82
2022/07/17 06:50:47;;;;;;;7.28;2.30;;;25.00;42.50;;;;;;6069159;23;89088;-82
2022/07/17 06:53:13;;;;;;;6.85;2.53;;;24.90;42.30;;;;;;6069761;23;86784;-83
2022/07/17 06:55:39;;;;;;;8.05;2.30;;;24.90;42.10;;;;;;6070026;23;87772;-82
2022/07/17 06:58:05;;;;;;;7.00;2.55;;;24.80;42.10;;;;;;6069099;23;88263;-83
2022/07/17 07:00:30;;;;;;;8.85;2.30;;;24.70;42.00;;;;;;6070210;23;87914;-82
2022/07/17 07:02:56;;;;;;;11.02;2.95;;;24.70;42.10;;;;;;6070398;23;87159;-82
2022/07/17 07:05:22;;;;;;;5.43;2.53;;;24.70;42.20;;;;;;6070497;23;86374;-83
2022/07/17 07:07:48;;;;;;;7.43;2.40;;;24.70;42.50;;;;;;6070342;23;88191;-82
2022/07/17 07:10:14;;;;;;;7.32;2.30;;;24.70;42.60;;;;;;6070806;23;88667;-83
2022/07/17 07:12:42;;;;;;;8.52;2.80;;;24.70;42.80;;;;;;6070580;23;88125;-82
2022/07/17 07:15:11;;;;;;;11.73;2.70;;;24.70;42.90;;;;;;6072420;23;87056;-83
2022/07/17 07:17:37;;;;;;;7.68;2.70;;;24.70;42.80;;;;;;6071429;23;87491;-83
2022/07/17 07:20:06;;;;;;;7.32;2.60;;;24.70;43.20;;;;;;6070961;23;87848;-82
2022/07/17 07:22:32;;;;;;;9.52;3.00;;;24.70;43.50;;;;;;6072632;23;87074;-82
2022/07/17 07:24:58;;;;;;;8.68;2.75;;;24.70;43.40;;;;;;6070582;23;86854;-82
2022/07/17 07:27:24;;;;;;;11.32;2.67;;;24.80;43.30;;;;;;6071753;23;87891;-82
2022/07/17 07:29:49;;;;;;;12.35;3.15;;;24.80;43.20;;;;;;6073382;23;88300;-83
2022/07/17 07:32:16;;;;;;;9.80;3.38;;;24.80;42.80;;;;;;6073380;23;86892;-82
2022/07/17 07:34:41;;;;;;;11.13;3.10;;;24.70;42.90;;;;;;6072835;23;87305;-82
2022/07/17 07:37:07;;;;;;;9.93;2.55;;;24.80;42.80;;;;;;6072181;23;88894;-83
2022/07/17 07:39:33;;;;;;;8.48;2.88;;;24.80;43.00;;;;;;6071122;23;88175;-85
2022/07/17 07:41:59;;;;;;;7.25;2.58;;;24.80;43.00;;;;;;6072724;23;86874;-84
2022/07/17 07:44:25;;;;;;;10.85;2.88;;;24.80;42.80;;;;;;6072202;23;86938;-84
2022/07/17 07:46:51;;;;;;;52.70;10.02;;;24.90;43.00;;;;;;6071935;23;88709;-82
2022/07/17 07:49:17;;;;;;;90.32;15.73;;;25.00;42.30;;;;;;6043914;23;90043;-83
2022/07/17 07:51:53;;;;;;;;;;;;;;;;;;;;;
2022/07/17 07:54:18;;;;;;;37.10;6.57;;;25.00;42.60;;;;;;6068140;23;88918;-82
2022/07/17 07:56:44;;;;;;;24.55;5.60;;;25.10;42.60;;;;;;6070269;23;86992;-81
2022/07/17 07:59:10;;;;;;;15.63;3.88;;;25.00;42.20;;;;;;6070355;23;88226;-81
2022/07/17 08:01:35;;;;;;;16.23;4.10;;;25.00;42.30;;;;;;6070173;23;90229;-82
2022/07/17 08:04:01;;;;;;;10.82;3.55;;;25.00;42.80;;;;;;6069859;23;87376;-82
2022/07/17 08:06:26;;;;;;;11.27;3.85;;;25.00;42.80;;;;;;6069426;23;88592;-82
2022/07/17 08:08:52;;;;;;;13.68;3.63;;;24.90;42.90;;;;;;6070849;23;88016;-83
2022/07/17 08:11:18;;;;;;;17.33;3.65;;;24.90;43.20;;;;;;6071145;23;87395;-84
2022/07/17 08:13:44;;;;;;;9.55;3.25;;;25.00;43.10;;;;;;5991961;23;88843;-83
2022/07/17 08:16:10;;;;;;;10.65;3.05;;;25.00;42.90;;;;;;6043049;23;91603;-83
2022/07/17 08:18:36;;;;;;;7.82;2.75;;;25.00;42.70;;;;;;6070170;23;88109;-82
2022/07/17 08:21:01;;;;;;;8.68;2.33;;;25.00;43.30;;;;;;6070412;23;86738;-83
2022/07/17 08:23:28;;;;;;;11.27;2.45;;;24.90;43.40;;;;;;6068241;23;87492;-83
2022/07/17 08:25:54;;;;;;;12.90;2.95;;;24.90;43.80;;;;;;6069685;23;89251;-84
2022/07/17 08:28:19;;;;;;;10.00;2.95;;;24.90;43.90;;;;;;6070723;23;87643;-83
2022/07/17 08:30:45;;;;;;;8.23;2.80;;;25.00;44.50;;;;;;6071373;23;87307;-83
2022/07/17 08:33:11;;;;;;;8.90;2.80;;;25.00;44.70;;;;;;6070371;23;87100;-83
2022/07/17 08:35:39;;;;;;;12.18;2.40;;;25.00;44.30;;;;;;6071376;23;87944;-83
2022/07/17 08:38:04;;;;;;;7.32;2.80;;;25.00;44.20;;;;;;6069688;23;87359;-83
2022/07/17 08:40:33;;;;;;;8.98;2.75;;;25.00;44.50;;;;;;6067811;23;87291;-84
2022/07/17 08:43:01;;;;;;;7.45;2.42;;;25.00;44.80;;;;;;6068316;23;87121;-83
2022/07/17 08:45:27;;;;;;;10.45;2.90;;;25.10;45.00;;;;;;6067220;23;88053;-83
2022/07/17 08:47:55;;;;;;;10.00;2.50;;;25.00;44.90;;;;;;6069409;23;87439;-84
2022/07/17 08:50:27;;;;;;;7.22;2.03;;;25.00;44.70;;;;;;6068981;23;87714;-83
2022/07/17 08:52:52;;;;;;;12.40;2.13;;;25.00;44.10;;;;;;6069013;23;86769;-83
2022/07/17 08:55:18;;;;;;;12.45;2.42;;;25.00;43.60;;;;;;6069713;23;88585;-82
2022/07/17 08:57:45;;;;;;;7.93;2.42;;;25.00;43.20;;;;;;6069759;23;88345;-85
2022/07/17 09:00:13;;;;;;;9.05;2.00;;;25.00;42.90;;;;;;6070439;23;86885;-83
2022/07/17 09:02:39;;;;;;;6.72;2.55;;;25.10;42.50;;;;;;6044420;23;89571;-83
2022/07/17 09:05:06;;;;;;;6.53;1.67;;;25.10;42.00;;;;;;6070733;23;88486;-83
2022/07/17 09:07:32;;;;;;;8.13;2.10;;;25.10;41.80;;;;;;6071613;23;87666;-83
2022/07/17 09:09:58;;;;;;;8.43;1.77;;;25.00;42.10;;;;;;6072138;23;86914;-83
2022/07/17 09:12:31;;;;;;;15.80;3.80;;;25.00;42.60;;;;;;6071013;23;87207;-84
2022/07/17 09:14:57;;;;;;;44.70;11.55;;;25.10;42.70;;;;;;6045146;23;91360;-83
2022/07/17 09:17:26;;;;;;;57.40;11.57;;;25.10;43.90;;;;;;6070459;23;89571;-82
2022/07/17 09:19:52;;;;;;;;;;;25.10;48.80;;;;;;6069947;23;87107;-83
2022/07/17 09:22:24;;;;;;;26.58;7.38;;;25.10;47.20;;;;;;6072970;23;86859;-84
2022/07/17 09:24:55;;;;;;;25.00;7.68;;;25.10;48.80;;;;;;6071856;23;88082;-83
2022/07/17 09:27:23;;;;;;;29.30;8.23;;;25.10;47.10;;;;;;6071947;23;87175;-85
2022/07/17 09:30:22;;;;;;;22.27;7.35;;;25.10;46.80;;;;;;6072331;23;86753;-83
2022/07/17 09:32:50;;;;;;;17.67;5.27;;;25.00;47.40;;;;;;6071980;23;86503;-83
2022/07/17 09:35:16;;;;;;;12.30;3.67;;;25.00;47.80;;;;;;6072403;23;88158;-83
2022/07/17 09:37:42;;;;;;;17.48;3.83;;;25.10;46.70;;;;;;6070594;23;87943;-83
2022/07/17 09:42:58;;;;;;;11.18;2.65;;;25.20;43.20;;;;;;6071690;23;86937;-83
2022/07/17 09:45:23;;;;;;;8.40;2.85;;;25.10;42.60;;;;;;6074682;23;87769;-83
2022/07/17 09:47:51;;;;;;;14.95;3.13;;;25.10;42.80;;;;;;6075096;23;87753;-84
2022/07/17 09:50:18;;;;;;;9.25;2.83;;;25.10;43.20;;;;;;6045437;23;86849;-84
2022/07/17 09:52:56;;;;;;;14.02;3.35;;;25.20;42.90;;;;;;6071153;23;86796;-84
2022/07/17 09:55:27;;;;;;;29.65;3.22;;;25.10;43.50;;;;;;6070415;23;87235;-89
2022/07/17 09:57:54;;;;;;;9.32;2.28;;;25.20;46.90;;;;;;6069029;23;88848;-83
2022/07/17 10:00:22;;;;;;;10.45;2.72;;;25.20;43.70;;;;;;6068342;23;87245;-84
2022/07/17 10:02:48;;;;;;;11.80;2.58;;;25.10;43.20;;;;;;6068297;23;87925;-84
2022/07/17 10:05:15;;;;;;;6.85;1.92;;;25.10;43.20;;;;;;6068864;23;89109;-83
2022/07/17 10:07:42;;;;;;;8.00;2.00;;;24.90;43.50;;;;;;6069083;23;89047;-83
2022/07/17 10:10:09;;;;;;;6.65;2.03;;;24.90;43.90;;;;;;6068685;23;87350;-83
2022/07/17 10:12:39;;;;;;;5.45;1.83;;;24.80;44.00;;;;;;6068446;23;88762;-82
2022/07/17 10:15:06;;;;;;;6.55;1.60;;;24.80;45.00;;;;;;6068929;23;88425;-83
2022/07/17 10:17:31;;;;;;;6.35;1.92;;;24.70;44.40;;;;;;6041805;23;90746;-82
2022/07/17 10:19:57;;;;;;;3.70;1.42;;;24.80;44.30;;;;;;6067959;23;87061;-83
2022/07/17 10:22:26;;;;;;;8.32;2.00;;;24.80;44.50;;;;;;6069042;23;86424;-83
2022/07/17 10:24:55;;;;;;;5.38;1.90;;;24.80;44.50;;;;;;6069967;23;88054;-85
2022/07/17 10:27:29;;;;;;;6.50;1.65;;;24.70;44.50;;;;;;6069015;23;88345;-84
2022/07/17 10:30:09;;;;;;;5.03;1.95;;;24.80;44.60;;;;;;6068615;23;87828;-83
2022/07/17 10:32:35;;;;;;;7.57;2.00;;;24.70;44.80;;;;;;6072221;23;87157;-84
2022/07/17 10:35:09;;;;;;;6.80;1.70;;;24.70;44.70;;;;;;6068761;23;87638;-83
2022/07/17 10:37:35;;;;;;;7.10;2.00;;;24.70;44.50;;;;;;6069110;23;87566;-83
2022/07/17 10:40:16;;;;;;;11.32;2.15;;;24.70;43.60;;;;;;6069470;23;87318;-83
2022/07/17 10:42:56;;;;;;;6.10;2.10;;;24.80;42.30;;;;;;6068826;23;87143;-82
2022/07/17 10:45:25;;;;;;;;;;;24.80;41.90;;;;;;6068627;23;87289;-82
2022/07/17 10:48:01;;;;;;;5.82;1.70;;;24.80;42.10;;;;;;6070276;23;87655;-83
2022/07/17 10:50:34;;;;;;;5.50;1.77;;;24.80;42.40;;;;;;6068577;23;87325;-83
2022/07/17 10:53:11;;;;;;;8.35;2.00;;;24.80;42.70;;;;;;6067217;23;89198;-82
2022/07/17 10:55:42;;;;;;;6.28;1.83;;;24.80;42.90;;;;;;6066389;23;89010;-84
2022/07/17 10:58:27;;;;;;;9.98;2.65;;;24.70;43.10;;;;;;6066923;23;87321;-83
2022/07/17 11:01:19;;;;;;;15.27;2.55;;;24.80;43.80;;;;;;6068230;23;86880;-82
2022/07/17 11:03:53;;;;;;;8.55;2.38;;;24.90;43.90;;;;;;6069546;23;87298;-84
2022/07/17 11:06:21;;;;;;;8.98;1.90;;;25.00;44.00;;;;;;6043194;23;89768;-85
2022/07/17 11:08:47;;;;;;;6.55;1.90;;;25.00;43.50;;;;;;6043285;23;90008;-83
2022/07/17 11:11:15;;;;;;;6.88;2.17;;;25.00;43.00;;;;;;6067343;23;87195;-83
2022/07/17 11:13:40;;;;;;;7.95;2.10;;;25.00;42.50;;;;;;5978799;23;87445;-83
2022/07/17 11:16:06;;;;;;;7.20;2.20;;;24.90;42.40;;;;;;5973164;23;88511;-85
2022/07/17 11:18:33;;;;;;;4.80;1.70;;;24.90;42.90;;;;;;5965607;23;87461;-83
2022/07/17 11:21:00;;;;;;;5.25;1.60;;;24.90;42.10;;;;;;5977173;23;88445;-83
2022/07/17 11:23:30;;;;;;;8.00;2.00;;;24.90;41.80;;;;;;5978395;23;87383;-83
2022/07/17 11:26:06;;;;;;;5.20;1.60;;;24.80;41.90;;;;;;5978432;23;88015;-83
2022/07/17 11:28:42;;;;;;;5.82;1.80;;;24.80;42.30;;;;;;5958945;23;88168;-82
2022/07/17 11:31:27;;;;;;;5.22;1.75;;;24.80;42.30;;;;;;5972869;23;86922;-83
2022/07/17 11:33:58;;;;;;;6.30;1.73;;;24.70;42.30;;;;;;5962118;23;87317;-83
2022/07/17 11:36:28;;;;;;;6.05;1.65;;;24.80;42.50;;;;;;5943070;23;88642;-80
2022/07/17 11:38:55;;;;;;;6.15;2.10;;;24.80;42.30;;;;;;5978454;23;87696;-81
2022/07/17 11:41:21;;;;;;;8.68;2.10;;;24.80;42.10;;;;;;5977227;23;87084;-81
2022/07/17 11:43:47;;;;;;;11.77;2.05;;;24.80;42.30;;;;;;5991184;23;87392;-81
2022/07/17 11:46:14;;;;;;;6.00;1.95;;;24.90;42.20;;;;;;6068735;23;89094;-80
2022/07/17 11:48:42;;;;;;;4.68;1.90;;;24.90;42.20;;;;;;6069457;23;89176;-82
2022/07/17 11:51:08;;;;;;;7.07;1.83;;;24.80;42.30;;;;;;6070560;23;87147;-81
2022/07/17 11:53:36;;;;;;;9.38;2.75;;;24.80;42.20;;;;;;6071156;23;87198;-81
2022/07/17 11:56:02;;;;;;;4.13;1.30;;;24.80;42.30;;;;;;6068644;23;87650;-81
2022/07/17 11:58:39;;;;;;;3.88;1.77;;;24.80;42.40;;;;;;6069764;23;88059;-81
2022/07/17 12:01:05;;;;;;;5.03;1.77;;;24.80;42.40;;;;;;6070211;23;87300;-81
2022/07/17 12:03:31;;;;;;;5.55;1.90;;;24.80;42.70;;;;;;6070162;23;86898;-81
2022/07/17 12:05:57;;;;;;;3.90;1.67;;;24.80;42.80;;;;;;6069538;23;88125;-82
2022/07/17 12:08:23;;;;;;;4.93;1.88;;;24.80;42.70;;;;;;6069527;23;88411;-81
2022/07/17 12:10:59;;;;;;;6.45;1.60;;;24.80;42.80;;;;;;6069229;23;87957;-81
2022/07/17 12:13:43;;;;;;;5.40;1.67;;;24.80;42.90;;;;;;6069675;23;87536;-81
2022/07/17 12:16:30;;;;;;;5.78;1.58;;;24.80;43.00;;;;;;6070302;23;87002;-81
2022/07/17 12:19:11;;;;;;;5.85;1.65;;;24.80;43.10;;;;;;6044011;23;88995;-81
2022/07/17 12:22:06;;;;;;;3.33;1.50;;;24.70;43.20;;;;;;6070015;23;86842;-81
2022/07/17 12:24:36;;;;;;;4.93;1.77;;;24.80;43.40;;;;;;5923988;23;87534;-81
2022/07/17 12:27:04;;;;;;;5.28;1.50;;;24.80;43.40;;;;;;5923799;23;87377;-81
2022/07/17 12:29:30;;;;;;;5.18;1.60;;;24.80;43.40;;;;;;5924673;23;88223;-81
2022/07/17 12:32:13;;;;;;;3.22;1.50;;;24.80;43.40;;;;;;5923938;23;87334;-81
2022/07/17 12:34:48;;;;;;;3.65;1.40;;;24.80;43.50;;;;;;5923169;23;87781;-81
2022/07/17 12:37:19;;;;;;;3.80;1.50;;;24.80;43.60;;;;;;5922988;23;89072;-81
2022/07/17 12:39:46;;;;;;;4.07;1.92;;;24.80;43.60;;;;;;5923304;23;89081;-81
2022/07/17 12:42:13;;;;;;;8.45;1.48;;;24.80;43.70;;;;;;5923941;23;86873;-81
2022/07/17 12:44:38;;;;;;;3.85;1.50;;;24.80;44.40;;;;;;5923715;23;87126;-81
2022/07/17 12:47:04;;;;;;;4.28;1.50;;;24.80;43.60;;;;;;5923020;23;87593;-82
2022/07/17 12:49:30;;;;;;;3.92;1.73;;;24.80;43.90;;;;;;5921427;23;88169;-81
2022/07/17 12:51:56;;;;;;;2.80;1.67;;;24.80;43.90;;;;;;5921031;23;88034;-81